High Gate, Missouri
Current Conditions -  °F | °C
As of 2:53 PM on Saturday 22 Nov 2014 (Local Time) from KVIH Reporting Station
Overcast Overcast  
Wind Chill: 54°   Ceiling: 1800
Heat Index: 54°   Visibility: 10mi
Dew Point: 49°   Wind: 16mph
Humidity: 83%   Direction: 170°S
Pressure: 29.92"   Gusts: 25mph
Location:  37.9936°N, 91.5964°W
Report Text: KVIH 222053Z AUTO 17014G22KT 10SM OVC018 12/09 A2992 RMK AO2 SLP133 60000 T01220094 58019
Loading
Personal Weather Stations






























Interactive Weather Map New forecast layout! Learn more

10-Day Weather Forecast

Advertisements
Track Severe Weather on mobile